ADDS TAF Data INFO

IDs: Format: Raw Decoded Include METARs

Data at: 0321 UTC 23 Nov 2014

Region: TOP
KATL 230153Z 2302/2406 09010KT P6SM BKN035
  FM230300 10008KT P6SM BKN025
  FM230800 08012KT 5SM -RA BR OVC008
  FM231400 10013G18KT 2SM SHRA BR OVC006
  PROB30 2317/2321 2SM TSRA OVC015CB
  FM232300 15010G18KT 4SM BR OVC009
  FM240500 19007KT 4SM BR BKN008


KBOS 222334Z 2300/2406 23015G24KT P6SM OVC050 WS020/25045KT
  FM230900 24014KT P6SM BKN070
  FM231600 25009KT P6SM SCT060
  FM240000 20006KT P6SM BKN090


KBWI 222342Z 2300/2406 21005KT P6SM SCT100
  FM230400 22006KT P6SM BKN110
  FM231000 18005KT P6SM SCT250
  FM240000 VRB03KT 6SM -RA OVC090
  FM240300 13007KT 3SM RA OVC015


KCLE 222340Z 2300/2406 19012KT P6SM OVC045
  FM231000 19012KT 6SM -SHRA SCT020 OVC035
  FM231500 20012G20KT P6SM OVC035
  FM240000 14012KT 5SM -SHRA OVC020


KCLT 222330Z 2300/2324 14006KT P6SM BKN250
  FM230700 02003KT P6SM BKN110
  FM231300 07004KT P6SM OVC027
  FM231500 06006KT 4SM -RA OVC014
  FM231700 07010KT 2SM -RA BR OVC007


KCVG 222320Z 2300/2406 19008KT P6SM BKN080
  FM230800 19008KT P6SM VCSH BKN040 BKN080
  FM231200 15008KT P6SM VCSH BKN025 OVC040
  FM231900 14010G18KT 4SM -SHRA BR OVC025
  FM232200 14012G20KT 2SM SHRA BR OVC007
  FM240400 17015G22KT 5SM -SHRA BR OVC007


KDCA 222342Z 2300/2324 21006KT P6SM SCT250
  FM232300 15005KT P6SM OVC100


KDEN 230305Z 2303/2406 28010KT P6SM SCT110 BKN160
  FM230500 24008KT P6SM SCT100 BKN150
  FM230700 35012G18KT P6SM SCT060 BKN090
  FM230900 02014KT P6SM -SHSN SCT025 BKN050 OVC070
  TEMPO 2310/2314 2SM -SN BR BKN012 OVC025
  FM231600 34015G25KT P6SM SCT050 BKN090
  FM232100 33020G30KT P6SM SCT060 BKN090
  FM240100 29010KT P6SM FEW070 BKN100


KDFW 230313Z 2303/2406 13011KT P6SM SCT015 OVC100
  FM230600 19007KT 6SM BR FEW007 SCT012 OVC100
  FM230900 21008KT 3SM BR SCT006 BKN011
  FM231400 22013KT P6SM SCT250
  FM231800 26015G25KT P6SM FEW250
  FM232100 29021G31KT P6SM SKC
  FM240000 32015KT P6SM SKC


KDTW 230307Z 2303/2406 20012KT 6SM BR OVC035 WS015/24045KT
  TEMPO 2309/2313 4SM -SHRA BKN025
  FM231300 18007KT 2SM -RA BR OVC007
  FM231900 16010KT 4SM -RA BR OVC015
  FM240000 14010KT 4SM RA BR OVC006


KEWR 230233Z 2303/2406 23012KT P6SM SCT050 BKN100 WS020/26040KT
  FM230600 23007KT P6SM BKN100 WS020/26040KT
  FM231500 22010G15KT P6SM BKN100
  FM231800 22008KT P6SM SCT060 BKN100
  FM232300 18007KT P6SM SCT008 BKN100


KFLL 222331Z 2300/2324 10021G28KT P6SM SCT025 OVC040
  TEMPO 2300/2304 BKN025
  FM230500 11015G22KT P6SM OVC040
  FM231400 14016G26KT P6SM SCT035 BKN050


KIAD 222342Z 2300/2406 19007KT P6SM SCT250
  FM231400 VRB03KT P6SM SCT250
  FM231800 16008KT P6SM BKN250
  FM240000 14006KT 6SM -RA OVC025
  FM240300 13009KT 3SM RA OVC008


KIAH 230301Z 2303/2406 VRB04KT 6SM -TSRA BR SCT008 BKN012CB OVC060
  FM230400 16008KT 5SM -TSRA BR SCT007 OVC015CB
  TEMPO 2305/2307 VRB15G30KT 1SM +TSRA BR BKN007 OVC015CB
  FM230800 20010KT P6SM BKN025 OVC050
  FM231200 24008KT P6SM SCT050 BKN100
  FM231500 24010KT P6SM SKC


KJFK 230233Z 2303/2406 22015G23KT P6SM SCT050 BKN100 WS020/26040KT
  FM230600 23010KT P6SM BKN100 WS020/26040KT
  FM231500 22010G17KT P6SM BKN100
  FM231900 19010KT P6SM SCT060 BKN100
  FM232300 18005KT P6SM SCT008 BKN100


KLAS 230232Z 2303/2324 20006KT P6SM FEW250
  FM230400 25007KT P6SM SCT250
  FM230800 34015G23KT P6SM SCT250
  FM232000 02010G16KT P6SM SCT250


KLAX 230256Z 2303/2406 16005KT P6SM FEW015 SCT250
  FM230500 35007KT P6SM SCT250
  FM231100 04006KT P6SM SCT250
  FM232000 25007KT P6SM SKC
  FM232300 30008KT P6SM SKC
  FM240300 32005KT P6SM SKC


KLGA 230233Z 2303/2324 23012G19KT P6SM SCT050 BKN100 WS020/26040KT
  FM230600 23007KT P6SM BKN100 WS020/26040KT
  FM231500 22010G16KT P6SM BKN100
  FM231900 19008KT P6SM SCT060 BKN100


KMCO 230309Z 2303/2324 10010KT P6SM SCT025 BKN080
  FM230600 11009KT P6SM SCT015 OVC035 WS020/12030KT
  TEMPO 2306/2310 5SM -RA BR SCT009 OVC015
  FM231500 16014G20KT P6SM SCT015 BKN035
  TEMPO 2315/2317 BKN025


KMDW 230215Z 2302/2324 20013KT P6SM SCT020 OVC050
  FM230500 20013KT 6SM BR BKN020 OVC040 WS020/21045KT
  FM231000 20013KT 6SM BR VCSH BKN018 OVC030
  FM231600 18014G20KT 6SM -SHRA BR BKN007 BKN015 OVC025
  FM232200 15012G20KT 2SM -RA BR OVC006


KMEM 230250Z 2303/2324 15004KT P6SM SCT050 OVC250
  FM230600 16009KT P6SM SCT035 OVC150
  FM231000 15009KT P6SM OVC025
  TEMPO 2310/2312 -RA
  FM231200 13012KT 4SM -RA BR VCTS OVC009CB


KMIA 222331Z 2300/2324 08017G25KT P6SM SCT025 OVC040
  TEMPO 2300/2304 BKN025
  FM230500 10012KT P6SM OVC040
  FM231400 13016G26KT P6SM SCT035 BKN050


KMSP 230310Z 2303/2406 15008KT 1SM BR OVC003
  TEMPO 2303/2307 1/2SM FG VV002
  FM231400 22006KT 3SM BR OVC006
  FM231700 26005KT P6SM BKN015 OVC050
  FM231900 29008KT P6SM SCT020 OVC080


KORD 230215Z 2302/2406 20013KT P6SM SCT020 OVC050
  FM230600 20013KT 6SM BR BKN020 OVC040 WS020/21045KT
  FM231000 20013KT 6SM BR VCSH BKN018 OVC030
  FM231600 18014G20KT 6SM -SHRA BR BKN007 BKN015 OVC025
  FM232200 15012G20KT 2SM -RA BR OVC006
  FM240400 18010KT 2SM RA BR OVC004


KPDX 230300Z 2303/2324 27003KT P6SM -SHRA SCT015 SCT040 SCT060
  FM230600 18007KT P6SM VCSH SCT025 BKN050
  FM231800 18008KT 6SM -RA BKN025 OVC050


KPHL 222339Z 2300/2406 21008KT P6SM BKN080
  FM231200 20006KT P6SM SCT100
  FM240000 16006KT P6SM OVC050
  FM240300 13006KT 6SM -RA SCT020 OVC035


KPHX 230300Z 2303/2324 10005KT P6SM SCT250
  FM231900 29010KT P6SM FEW250


KPIT 230257Z 2303/2406 19006KT P6SM OVC080
  FM231700 17006KT P6SM SCT080 BKN250
  FM240100 14010KT P6SM OVC080
  FM240400 15010KT 6SM -RA BKN025


KSAN 230309Z 2303/2406 VRB04KT P6SM FEW015 SCT250
  FM230400 VRB03KT P6SM BKN014
  FM231500 VRB03KT P6SM FEW016 SCT250
  FM231900 30010KT P6SM SCT250
  FM240200 VRB04KT P6SM SCT250


KSEA 230301Z 2303/2406 18006KT P6SM BKN020 OVC110
  FM231000 19013G22KT P6SM -SHRA SCT011 OVC020
  FM231200 19018G28KT 5SM -SHRA BR SCT010 OVC015
  FM231600 22016G24KT P6SM VCSH SCT015 BKN025
  FM232100 23012G20KT P6SM VCSH SCT020 BKN035
  FM240300 20007KT P6SM SCT025 BKN040


KSFO 230003Z 2300/2406 29016G22KT P6SM FEW012 SCT025 SCT200
  FM230200 31009KT P6SM FEW025 SCT200
  FM231000 33004KT P6SM SCT200
  FM231800 31007KT P6SM SCT200
  FM240300 29007KT P6SM SCT200


KSLC 230302Z 2303/2406 10008KT P6SM SCT040 BKN090
  FM230700 31010KT 6SM -SHSN SCT015 OVC040
  TEMPO 2308/2312 2SM -SHSN BKN015
  FM231200 33011KT P6SM VCSH SCT030 BKN050
  FM240300 15007KT P6SM VCSH SCT030 BKN050


KSTL 230301Z 2303/2406 18012G20KT P6SM VCSH OVC025
  TEMPO 2303/2305 6SM -RA OVC015
  FM230900 18010KT 5SM -SHRA SCT009 OVC015
  FM231500 15010KT 3SM -RA OVC007
  FM240300 19008KT 6SM BR OVC007


KTPA 230250Z 2303/2324 10010KT P6SM FEW015 SCT020 BKN080
  FM230600 12011KT P6SM SCT010 OVC020
  FM231400 15011KT P6SM SCT010 BKN030
  FM231800 18012G22KT P6SM VCTS SCT025CB OVC045



Page loaded:  03:21 UTC  |   07:21 PM Pacific  |   08:21 PM Mountain  |   09:21 PM Central  |   10:21 PM Eastern

 

ADVISORIES

FORECASTS

FORECASTS

OBSERVATIONS

USER TOOLS

ABOUT US